createdAt,value
2024-01-11T00:01:24.809Z,18.73
2024-01-11T00:03:51.657Z,18.45
2024-01-11T00:06:18.905Z,16.50
2024-01-11T00:08:45.934Z,20.95
2024-01-11T00:11:13.757Z,16.73
2024-01-11T00:13:41.617Z,18.05
2024-01-11T00:16:08.546Z,17.02
2024-01-11T00:18:35.476Z,17.83
2024-01-11T00:21:02.974Z,17.40
2024-01-11T00:23:29.979Z,21.05
2024-01-11T00:25:56.907Z,17.65
2024-01-11T00:28:23.822Z,18.38
2024-01-11T00:30:50.884Z,17.85
2024-01-11T00:33:17.923Z,19.08
2024-01-11T00:35:44.944Z,17.08
2024-01-11T00:38:11.954Z,21.85
2024-01-11T00:40:38.827Z,21.65
2024-01-11T00:43:05.901Z,17.48
2024-01-11T00:45:32.759Z,17.60
2024-01-11T00:48:00.068Z,18.35
2024-01-11T00:50:27.062Z,20.17
2024-01-11T00:52:54.049Z,19.10
2024-01-11T00:55:20.961Z,21.42
2024-01-11T00:57:47.826Z,17.20
2024-01-11T01:00:17.636Z,18.45
2024-01-11T01:02:44.554Z,19.15
2024-01-11T01:05:11.764Z,19.17
2024-01-11T01:07:38.822Z,18.10
2024-01-11T01:10:06.233Z,21.33
2024-01-11T01:12:33.126Z,18.50
2024-01-11T01:15:00.003Z,19.20
2024-01-11T01:17:27.041Z,18.87
2024-01-11T01:19:54.033Z,19.80
2024-01-11T01:22:22.794Z,17.73
2024-01-11T01:24:49.816Z,21.42
2024-01-11T01:27:18.140Z,19.63
2024-01-11T01:29:45.023Z,17.67
2024-01-11T01:32:11.923Z,21.45
2024-01-11T01:34:38.890Z,16.38
2024-01-11T01:37:05.901Z,19.50
2024-01-11T01:39:32.801Z,18.30
2024-01-11T01:41:59.744Z,18.38
2024-01-11T01:44:26.636Z,17.08
2024-01-11T01:46:53.850Z,21.30
2024-01-11T01:49:23.666Z,20.45
2024-01-11T01:51:51.942Z,19.48
2024-01-11T01:54:21.821Z,17.90
2024-01-11T01:56:49.144Z,16.45
2024-01-11T01:59:17.531Z,19.20
2024-01-11T02:01:44.550Z,18.40
2024-01-11T02:04:11.675Z,19.60
2024-01-11T02:06:39.154Z,20.25
2024-01-11T02:09:09.040Z,19.73
2024-01-11T02:11:36.029Z,18.90
2024-01-11T02:14:03.499Z,21.55
2024-01-11T02:16:30.401Z,19.80
2024-01-11T02:18:57.591Z,19.67
2024-01-11T02:21:25.574Z,22.77
2024-01-11T02:24:08.252Z,20.15
2024-01-11T02:26:35.648Z,18.85
2024-01-11T02:29:03.227Z,18.27
2024-01-11T02:31:30.203Z,24.42
2024-01-11T02:33:57.636Z,19.40
2024-01-11T02:36:26.084Z,24.20
2024-01-11T02:38:54.331Z,19.42
2024-01-11T02:41:22.608Z,19.55
2024-01-11T02:43:50.235Z,22.98
2024-01-11T02:46:18.192Z,22.30
2024-01-11T02:48:46.556Z,20.98
2024-01-11T02:51:13.704Z,21.33
2024-01-11T02:53:40.649Z,20.80
2024-01-11T02:56:07.754Z,20.00
2024-01-11T02:58:34.672Z,20.83
2024-01-11T03:01:01.787Z,22.52
2024-01-11T03:03:28.696Z,22.83
2024-01-11T03:05:55.881Z,19.60
2024-01-11T03:08:23.309Z,22.27
2024-01-11T03:10:50.243Z,20.35
2024-01-11T03:13:17.067Z,22.67
2024-01-11T03:15:44.255Z,23.33
2024-01-11T03:18:11.603Z,26.65
2024-01-11T03:20:38.927Z,23.85
2024-01-11T03:23:06.670Z,22.73
2024-01-11T03:25:33.559Z,21.38
2024-01-11T03:28:00.593Z,23.42
2024-01-11T03:30:27.716Z,21.08
2024-01-11T03:32:54.920Z,21.43
2024-01-11T03:35:22.359Z,21.67
2024-01-11T03:37:49.304Z,22.90
2024-01-11T03:40:16.197Z,24.02
2024-01-11T03:42:44.401Z,25.52
2024-01-11T03:45:11.500Z,21.73
2024-01-11T03:47:38.657Z,24.73
2024-01-11T03:50:06.257Z,23.73
2024-01-11T03:52:33.161Z,21.90
2024-01-11T03:54:59.991Z,23.45
2024-01-11T03:57:26.932Z,24.25
2024-01-11T03:59:54.452Z,23.80
2024-01-11T04:02:21.458Z,25.33
2024-01-11T04:04:48.842Z,33.00
2024-01-11T04:07:15.751Z,27.27
2024-01-11T04:09:42.758Z,28.05
2024-01-11T04:12:09.924Z,24.75
2024-01-11T04:14:43.546Z,22.80
2024-01-11T04:17:10.545Z,28.58
2024-01-11T04:19:37.458Z,28.45
2024-01-11T04:22:04.487Z,26.17
2024-01-11T04:24:31.368Z,30.38
2024-01-11T04:26:58.205Z,27.80
2024-01-11T04:29:25.231Z,29.83
2024-01-11T04:31:52.114Z,31.23
2024-01-11T04:34:19.060Z,31.15
2024-01-11T04:36:46.122Z,32.53
2024-01-11T04:39:13.095Z,37.88
2024-01-11T04:41:40.910Z,33.22
2024-01-11T04:44:08.019Z,34.08
2024-01-11T04:46:35.867Z,34.22
2024-01-11T04:49:02.909Z,32.53
2024-01-11T04:51:29.891Z,32.45
2024-01-11T04:53:56.855Z,39.35
2024-01-11T04:56:23.911Z,37.88
2024-01-11T04:58:50.784Z,36.78
2024-01-11T05:01:19.014Z,37.88
2024-01-11T05:03:47.817Z,31.25
2024-01-11T05:06:22.944Z,37.53
2024-01-11T05:08:53.826Z,39.05
2024-01-11T05:11:22.387Z,40.13
2024-01-11T05:13:50.423Z,40.67
2024-01-11T05:16:30.227Z,40.97
2024-01-11T05:18:58.958Z,40.40
2024-01-11T05:21:27.230Z,35.85
2024-01-11T05:23:54.471Z,47.00
2024-01-11T05:26:22.213Z,44.00
2024-01-11T05:28:49.243Z,42.63
2024-01-11T05:31:18.126Z,38.38
2024-01-11T05:33:46.105Z,40.03
2024-01-11T05:36:13.263Z,36.17
2024-01-11T05:38:41.441Z,46.38
2024-01-11T05:41:09.385Z,40.83
2024-01-11T05:43:36.693Z,56.30
2024-01-11T05:46:04.410Z,60.38
2024-01-11T05:48:31.509Z,46.13
2024-01-11T05:50:58.417Z,46.58
2024-01-11T05:53:26.638Z,40.13
2024-01-11T05:55:55.280Z,41.45
2024-01-11T05:58:22.510Z,45.87
2024-01-11T06:00:49.607Z,42.08
2024-01-11T06:03:16.622Z,39.53
2024-01-11T06:05:43.926Z,43.53
2024-01-11T06:08:11.017Z,43.10
2024-01-11T06:10:38.624Z,47.00
2024-01-11T06:13:05.501Z,40.85
2024-01-11T06:15:33.060Z,44.92
2024-01-11T06:18:00.064Z,50.50
2024-01-11T06:20:27.108Z,42.63
2024-01-11T06:22:54.081Z,39.83
2024-01-11T06:25:21.020Z,43.40
2024-01-11T06:27:48.749Z,40.45
2024-01-11T06:30:16.007Z,41.58
2024-01-11T06:32:43.045Z,38.97
2024-01-11T06:35:10.680Z,43.45
2024-01-11T06:37:37.725Z,40.60
2024-01-11T06:40:04.972Z,41.33
2024-01-11T06:42:32.267Z,46.80
2024-01-11T06:44:59.205Z,43.42
2024-01-11T06:47:26.844Z,44.75
2024-01-11T06:49:54.816Z,41.97
2024-01-11T06:52:21.713Z,45.92
2024-01-11T06:54:48.644Z,44.35
2024-01-11T06:57:15.517Z,47.13
2024-01-11T06:59:42.582Z,44.67
2024-01-11T07:02:09.536Z,41.22
2024-01-11T07:04:36.448Z,49.00
2024-01-11T07:07:05.780Z,45.47
2024-01-11T07:09:32.862Z,46.28
2024-01-11T07:11:59.790Z,45.08
2024-01-11T07:14:26.711Z,47.70
2024-01-11T07:16:53.635Z,42.40
2024-01-11T07:19:21.378Z,45.33
2024-01-11T07:21:48.475Z,42.95
2024-01-11T07:24:15.394Z,20.65
2024-01-11T07:26:42.895Z,45.00
2024-01-11T07:29:09.999Z,46.92
2024-01-11T07:31:37.011Z,49.83
2024-01-11T07:34:04.198Z,46.47
2024-01-11T07:36:31.239Z,46.58
2024-01-11T07:38:58.296Z,45.58
2024-01-11T07:41:25.300Z,51.90
2024-01-11T07:43:54.652Z,51.08
2024-01-11T07:46:29.607Z,48.90
2024-01-11T07:49:06.082Z,46.88
2024-01-11T07:51:34.204Z,47.75
2024-01-11T07:54:01.113Z,47.47
2024-01-11T07:56:28.029Z,46.35
2024-01-11T07:58:54.954Z,47.30
2024-01-11T08:01:21.957Z,52.22
2024-01-11T08:03:49.167Z,45.67
2024-01-11T08:06:16.292Z,45.50
2024-01-11T08:08:44.004Z,50.80
2024-01-11T08:11:14.791Z,51.03
2024-01-11T08:13:41.737Z,52.53
2024-01-11T08:16:10.899Z,52.08
2024-01-11T08:18:38.128Z,48.78
2024-01-11T08:21:12.582Z,51.53
2024-01-11T08:23:47.209Z,46.40
2024-01-11T08:26:20.181Z,47.33
2024-01-11T08:28:47.491Z,52.40
2024-01-11T08:31:14.599Z,51.08
2024-01-11T08:33:41.717Z,54.42
2024-01-11T08:36:09.045Z,50.58
2024-01-11T08:38:37.159Z,55.50
2024-01-11T08:41:04.938Z,53.25
2024-01-11T08:43:32.087Z,51.83
2024-01-11T08:45:59.197Z,51.22
2024-01-11T08:48:26.747Z,53.17
2024-01-11T08:50:54.267Z,51.33
2024-01-11T08:53:21.573Z,55.38
2024-01-11T08:55:48.761Z,49.08
2024-01-11T08:58:15.713Z,54.93
2024-01-11T09:00:42.717Z,47.67
2024-01-11T09:03:09.798Z,57.03
2024-01-11T09:05:36.844Z,52.45
2024-01-11T09:08:05.300Z,43.22
2024-01-11T09:10:32.239Z,42.45
2024-01-11T09:12:59.170Z,50.05
2024-01-11T09:15:26.110Z,35.60
2024-01-11T09:17:56.095Z,46.95
2024-01-11T09:20:23.268Z,40.13
2024-01-11T09:22:50.146Z,50.08
2024-01-11T09:25:17.206Z,43.50
2024-01-11T09:27:44.095Z,50.80
2024-01-11T09:30:11.465Z,39.25
2024-01-11T09:32:38.468Z,45.58
2024-01-11T09:35:06.215Z,42.47
2024-01-11T09:37:33.344Z,45.33
2024-01-11T09:40:01.941Z,42.72
2024-01-11T09:42:29.356Z,44.25
2024-01-11T09:44:57.956Z,39.53
2024-01-11T09:47:26.227Z,38.85
2024-01-11T09:49:56.026Z,41.70
2024-01-11T09:52:26.599Z,37.30
2024-01-11T09:54:53.660Z,32.75
2024-01-11T09:57:27.792Z,36.63
2024-01-11T09:59:57.909Z,41.55
2024-01-11T10:02:27.788Z,38.70
2024-01-11T10:04:55.068Z,39.13
2024-01-11T10:07:26.107Z,33.42
2024-01-11T10:09:54.477Z,24.00
2024-01-11T10:12:26.462Z,34.83
2024-01-11T10:14:53.830Z,40.53
2024-01-11T10:17:24.178Z,39.92
2024-01-11T10:20:00.053Z,36.15
2024-01-11T10:22:27.623Z,34.40
2024-01-11T10:25:12.309Z,40.63
2024-01-11T10:27:43.350Z,34.10
2024-01-11T10:30:14.878Z,36.25
2024-01-11T10:32:42.051Z,43.95
2024-01-11T10:35:09.378Z,39.13
2024-01-11T10:37:37.736Z,33.92
2024-01-11T10:40:16.365Z,35.67
2024-01-11T10:42:45.069Z,31.55
2024-01-11T10:45:19.117Z,37.30
2024-01-11T10:47:56.790Z,35.35
2024-01-11T10:50:25.572Z,37.78
2024-01-11T10:53:19.003Z,39.72
2024-01-11T10:55:47.275Z,37.97
2024-01-11T10:58:16.134Z,37.78
2024-01-11T11:00:43.283Z,38.38
2024-01-11T11:03:11.424Z,34.83
2024-01-11T11:05:39.356Z,37.17
2024-01-11T11:08:08.032Z,36.40
2024-01-11T11:10:41.708Z,39.00
2024-01-11T11:13:10.867Z,34.70
2024-01-11T11:15:39.215Z,35.45
2024-01-11T11:18:06.671Z,29.05
2024-01-11T11:20:34.318Z,40.85
2024-01-11T11:23:08.495Z,34.45
2024-01-11T11:25:35.772Z,35.75
2024-01-11T11:28:05.472Z,35.95
2024-01-11T11:30:39.834Z,39.70
2024-01-11T11:33:11.392Z,82.85
2024-01-11T11:35:39.583Z,41.92
2024-01-11T11:38:06.882Z,40.80
2024-01-11T11:40:41.407Z,35.25
2024-01-11T11:43:08.634Z,39.22
2024-01-11T11:45:35.726Z,32.38
2024-01-11T11:48:03.511Z,36.22
2024-01-11T11:50:32.341Z,32.60
2024-01-11T11:52:59.343Z,33.33
2024-01-11T11:55:26.751Z,36.92
2024-01-11T11:57:56.975Z,28.92
2024-01-11T12:00:24.826Z,35.97
2024-01-11T12:02:56.774Z,37.10
2024-01-11T12:05:24.187Z,32.20
2024-01-11T12:07:51.954Z,29.50
2024-01-11T12:10:19.044Z,31.77
2024-01-11T12:12:46.596Z,29.85
2024-01-11T12:15:13.905Z,27.38
2024-01-11T12:17:43.797Z,29.80
2024-01-11T12:20:11.570Z,32.50
2024-01-11T12:22:39.414Z,31.67
2024-01-11T12:25:06.950Z,28.75
2024-01-11T12:27:33.936Z,25.67
2024-01-11T12:30:03.193Z,24.90
2024-01-11T12:32:31.618Z,27.95
2024-01-11T12:34:59.389Z,26.35
2024-01-11T12:37:27.443Z,26.92
2024-01-11T12:40:01.080Z,26.50
2024-01-11T12:42:31.241Z,25.98
2024-01-11T12:44:59.602Z,26.08
2024-01-11T12:47:27.233Z,24.35
2024-01-11T12:49:54.316Z,25.90
2024-01-11T12:52:21.227Z,23.70
2024-01-11T12:54:48.137Z,24.50
2024-01-11T12:57:23.007Z,23.35
2024-01-11T12:59:50.141Z,21.63
2024-01-11T13:02:19.556Z,23.27
2024-01-11T13:04:50.122Z,24.38
2024-01-11T13:07:17.227Z,20.58
2024-01-11T13:09:44.199Z,26.00
2024-01-11T13:12:11.081Z,24.52
2024-01-11T13:14:40.825Z,24.35
2024-01-11T13:17:08.833Z,21.88
2024-01-11T13:19:36.010Z,22.85
2024-01-11T13:22:04.048Z,27.17
2024-01-11T13:24:31.320Z,27.23
2024-01-11T13:26:58.383Z,26.13
2024-01-11T13:29:25.418Z,24.13
2024-01-11T13:31:52.344Z,24.27
2024-01-11T13:34:20.001Z,23.90
2024-01-11T13:36:46.941Z,28.40
2024-01-11T13:39:13.765Z,24.05
2024-01-11T13:41:42.085Z,28.08
2024-01-11T13:44:10.562Z,26.35
2024-01-11T13:46:37.542Z,20.75
2024-01-11T13:49:04.733Z,22.77
2024-01-11T13:51:40.586Z,23.85
2024-01-11T13:54:13.087Z,26.38
2024-01-11T13:56:40.085Z,21.58
2024-01-11T13:59:07.118Z,23.15
2024-01-11T14:01:34.148Z,25.52
2024-01-11T14:04:00.976Z,27.10
2024-01-11T14:06:28.304Z,23.17
2024-01-11T14:08:55.224Z,20.73
2024-01-11T14:11:22.137Z,25.65
2024-01-11T14:13:49.260Z,30.13
2024-01-11T14:16:18.075Z,26.38
2024-01-11T14:18:45.117Z,26.30
2024-01-11T14:21:12.806Z,27.13
2024-01-11T14:23:39.756Z,25.27
2024-01-11T14:26:06.941Z,25.10
2024-01-11T14:28:33.877Z,23.93
2024-01-11T14:31:01.085Z,27.88
2024-01-11T14:33:28.143Z,26.77
2024-01-11T14:35:55.370Z,28.80
2024-01-11T14:38:22.373Z,26.70
2024-01-11T14:40:49.375Z,27.25
2024-01-11T14:43:16.530Z,29.90
2024-01-11T14:45:43.881Z,29.42
2024-01-11T14:48:13.286Z,25.15
2024-01-11T14:50:40.297Z,27.30
2024-01-11T14:53:07.270Z,29.05
2024-01-11T14:55:36.256Z,26.58
2024-01-11T14:58:03.180Z,28.35
2024-01-11T15:00:30.177Z,26.83
2024-01-11T15:02:57.627Z,27.33
2024-01-11T15:05:24.639Z,29.10
2024-01-11T15:07:51.536Z,30.10
2024-01-11T15:10:18.834Z,27.88
2024-01-11T15:12:46.297Z,28.10
2024-01-11T15:15:13.169Z,29.60
2024-01-11T15:17:40.251Z,27.77
2024-01-11T15:20:07.960Z,29.70
2024-01-11T15:22:34.883Z,27.58
2024-01-11T15:25:02.240Z,28.63
2024-01-11T15:27:29.099Z,32.10
2024-01-11T15:29:56.009Z,27.55
2024-01-11T15:32:23.913Z,29.88
2024-01-11T15:34:50.793Z,29.05
2024-01-11T15:37:19.834Z,29.63
2024-01-11T15:39:48.146Z,29.15
2024-01-11T15:42:15.051Z,30.23
2024-01-11T15:44:41.930Z,29.83
2024-01-11T15:47:11.680Z,31.17
2024-01-11T15:49:38.748Z,33.13
2024-01-11T15:52:06.377Z,35.07
2024-01-11T15:54:35.961Z,38.58
2024-01-11T15:57:04.787Z,34.80
2024-01-11T15:59:32.339Z,31.33
2024-01-11T16:02:06.278Z,32.73
2024-01-11T16:04:34.821Z,33.30
2024-01-11T16:07:02.349Z,36.85
2024-01-11T16:09:29.603Z,35.42
2024-01-11T16:12:02.532Z,34.47
2024-01-11T16:14:32.535Z,38.83
2024-01-11T16:17:03.375Z,34.55
2024-01-11T16:19:32.241Z,35.40
2024-01-11T16:21:59.226Z,35.85
2024-01-11T16:24:26.153Z,34.25
2024-01-11T16:26:53.145Z,33.55
2024-01-11T16:29:20.007Z,34.53
2024-01-11T16:31:47.054Z,33.70
2024-01-11T16:34:14.783Z,35.08
2024-01-11T16:36:41.729Z,34.83
2024-01-11T16:39:12.966Z,47.33
2024-01-11T16:41:41.906Z,39.57
2024-01-11T16:44:09.871Z,39.80
2024-01-11T16:46:36.943Z,37.15
2024-01-11T16:49:04.129Z,37.97
2024-01-11T16:51:31.197Z,38.80
2024-01-11T16:53:58.164Z,38.63
2024-01-11T16:56:25.115Z,47.20
2024-01-11T16:58:52.028Z,47.40
2024-01-11T17:01:18.928Z,36.92
2024-01-11T17:03:45.904Z,33.72
2024-01-11T17:06:13.745Z,36.28
2024-01-11T17:08:40.762Z,36.92
2024-01-11T17:11:07.742Z,37.58
2024-01-11T17:13:34.753Z,44.25
2024-01-11T17:16:01.701Z,38.95
2024-01-11T17:18:28.828Z,36.58
2024-01-11T17:20:55.972Z,34.38
2024-01-11T17:23:22.929Z,35.45
2024-01-11T17:25:50.030Z,36.23
2024-01-11T17:28:17.154Z,37.88
2024-01-11T17:30:44.165Z,32.90
2024-01-11T17:33:11.374Z,32.90
2024-01-11T17:35:38.460Z,37.30
2024-01-11T17:38:05.463Z,36.97
2024-01-11T17:40:34.527Z,35.95
2024-01-11T17:43:03.194Z,41.30
2024-01-11T17:45:30.089Z,32.50
2024-01-11T17:47:58.125Z,33.22
2024-01-11T17:50:25.320Z,35.55
2024-01-11T17:52:52.573Z,36.97
2024-01-11T17:55:19.852Z,44.70
2024-01-11T17:57:46.881Z,35.35
2024-01-11T18:00:14.732Z,37.53
2024-01-11T18:02:41.902Z,36.28
2024-01-11T18:05:10.104Z,41.08
2024-01-11T18:07:37.317Z,34.40
2024-01-11T18:10:04.491Z,36.13
2024-01-11T18:12:31.584Z,37.92
2024-01-11T18:14:58.698Z,34.77
2024-01-11T18:17:25.744Z,35.50
2024-01-11T18:19:52.840Z,36.47
2024-01-11T18:22:19.894Z,32.30
2024-01-11T18:24:46.891Z,33.63
2024-01-11T18:27:14.043Z,37.40
2024-01-11T18:29:40.961Z,37.85
2024-01-11T18:32:08.125Z,35.83
2024-01-11T18:34:35.202Z,41.13
2024-01-11T18:37:02.129Z,37.27
2024-01-11T18:39:28.970Z,41.45
2024-01-11T18:41:58.707Z,44.67
2024-01-11T18:44:26.823Z,35.13
2024-01-11T18:46:53.899Z,36.33
2024-01-11T18:49:21.112Z,36.58
2024-01-11T18:51:48.245Z,36.33
2024-01-11T18:54:15.676Z,40.25
2024-01-11T18:56:43.664Z,35.47
2024-01-11T18:59:10.815Z,38.67
2024-01-11T19:01:37.843Z,35.28
2024-01-11T19:04:05.050Z,40.78
2024-01-11T19:06:32.087Z,39.95
2024-01-11T19:09:00.419Z,37.38
2024-01-11T19:11:28.048Z,32.38
2024-01-11T19:13:55.008Z,36.70
2024-01-11T19:16:21.961Z,37.33
2024-01-11T19:18:51.016Z,37.55
2024-01-11T19:21:20.018Z,35.85
2024-01-11T19:23:47.068Z,41.97
2024-01-11T19:26:14.276Z,37.70
2024-01-11T19:28:41.356Z,41.33
2024-01-11T19:31:08.575Z,39.38
2024-01-11T19:33:36.683Z,37.28
2024-01-11T19:36:03.966Z,39.03
2024-01-11T19:38:30.969Z,38.22
2024-01-11T19:40:57.925Z,35.78
2024-01-11T19:43:24.789Z,40.92
2024-01-11T19:45:51.666Z,40.20
2024-01-11T19:48:18.892Z,39.83
2024-01-11T19:50:48.429Z,39.55
2024-01-11T19:53:17.065Z,34.45
2024-01-11T19:55:44.126Z,43.47
2024-01-11T19:58:11.371Z,45.03
2024-01-11T20:00:42.198Z,47.07
2024-01-11T20:03:09.758Z,76.67
2024-01-11T20:05:37.017Z,78.20
2024-01-11T20:08:04.394Z,67.68
2024-01-11T20:10:31.302Z,50.35
2024-01-11T20:12:58.298Z,49.80
2024-01-11T20:15:25.235Z,50.78
2024-01-11T20:17:52.355Z,41.78
2024-01-11T20:20:19.376Z,42.75
2024-01-11T20:22:46.344Z,50.15
2024-01-11T20:25:13.368Z,50.30
2024-01-11T20:27:40.227Z,51.53
2024-01-11T20:30:10.908Z,46.85
2024-01-11T20:32:39.518Z,44.00
2024-01-11T20:35:07.017Z,37.25
2024-01-11T20:37:33.837Z,40.95
2024-01-11T20:40:01.430Z,35.53
2024-01-11T20:42:28.362Z,41.93
2024-01-11T20:44:55.427Z,39.88
2024-01-11T20:47:23.899Z,41.75
2024-01-11T20:49:52.031Z,40.17
2024-01-11T20:52:22.751Z,38.13
2024-01-11T20:54:51.630Z,34.47
2024-01-11T20:57:19.711Z,38.65
2024-01-11T20:59:46.661Z,38.53
2024-01-11T21:02:13.818Z,39.05
2024-01-11T21:04:40.728Z,38.03
2024-01-11T21:07:07.667Z,46.63
2024-01-11T21:09:34.622Z,44.88
2024-01-11T21:12:01.895Z,44.03
2024-01-11T21:14:29.024Z,38.07
2024-01-11T21:16:55.942Z,40.60
2024-01-11T21:19:22.956Z,42.92
2024-01-11T21:21:51.706Z,33.28
2024-01-11T21:24:20.771Z,42.72
2024-01-11T21:26:48.450Z,37.05
2024-01-11T21:29:15.811Z,33.15
2024-01-11T21:31:42.842Z,46.60
2024-01-11T21:34:09.909Z,39.78
2024-01-11T21:36:37.696Z,34.42
2024-01-11T21:39:05.041Z,36.22
2024-01-11T21:41:33.145Z,38.50
2024-01-11T21:44:01.177Z,43.90
2024-01-11T21:46:28.624Z,38.83
2024-01-11T21:48:56.162Z,36.53
2024-01-11T21:51:23.942Z,39.30
2024-01-11T21:53:58.134Z,40.15
2024-01-11T21:56:31.141Z,37.20
2024-01-11T21:58:58.281Z,39.42
2024-01-11T22:01:25.299Z,40.03
2024-01-11T22:03:53.951Z,34.90
2024-01-11T22:06:22.182Z,34.03
2024-01-11T22:08:49.670Z,39.05
2024-01-11T22:11:17.914Z,38.28
2024-01-11T22:13:44.816Z,38.72
2024-01-11T22:16:11.717Z,39.63
2024-01-11T22:18:38.885Z,37.65
2024-01-11T22:21:07.065Z,35.20
2024-01-11T22:23:34.611Z,39.20
2024-01-11T22:26:01.478Z,35.35
2024-01-11T22:28:28.488Z,31.30
2024-01-11T22:30:55.504Z,45.10
2024-01-11T22:33:22.637Z,37.85
2024-01-11T22:35:49.736Z,31.38
2024-01-11T22:38:16.687Z,40.20
2024-01-11T22:40:43.610Z,31.13
2024-01-11T22:43:10.648Z,34.03
2024-01-11T22:45:37.680Z,39.20
2024-01-11T22:48:04.949Z,36.50
2024-01-11T22:50:32.037Z,33.97
2024-01-11T22:53:00.735Z,38.63
2024-01-11T22:55:27.757Z,35.25
2024-01-11T22:57:54.580Z,28.08
2024-01-11T23:00:22.522Z,30.33
2024-01-11T23:02:51.020Z,25.08
2024-01-11T23:05:19.107Z,24.70
2024-01-11T23:07:46.683Z,27.55
2024-01-11T23:10:13.788Z,31.65
2024-01-11T23:12:44.704Z,24.63
2024-01-11T23:15:12.185Z,25.00
2024-01-11T23:17:39.396Z,27.45
2024-01-11T23:20:08.466Z,23.23
2024-01-11T23:22:36.164Z,31.55
2024-01-11T23:25:03.248Z,25.48
2024-01-11T23:27:30.226Z,32.65
2024-01-11T23:29:57.196Z,29.40
2024-01-11T23:32:24.442Z,30.98
2024-01-11T23:34:51.446Z,23.52
2024-01-11T23:37:18.392Z,29.00
2024-01-11T23:39:45.353Z,23.55
2024-01-11T23:42:13.365Z,29.15
2024-01-11T23:44:40.883Z,22.70
2024-01-11T23:47:08.896Z,26.52
2024-01-11T23:49:35.991Z,29.27
2024-01-11T23:52:03.117Z,25.40
2024-01-11T23:54:30.122Z,26.33
2024-01-11T23:56:57.088Z,30.15
2024-01-11T23:59:24.767Z,25.03
